sensor_id;sensor_type;location;lat;lon;timestamp;pressure;altitude;pressure_sealevel;temperature;humidity
37238;BME280;23129;49.662;8.448;2023-12-28T00:01:02;100717.00;;;4.88;100.00
37238;BME280;23129;49.662;8.448;2023-12-28T00:03:31;100716.13;;;4.84;100.00
37238;BME280;23129;49.662;8.448;2023-12-28T00:06:02;100709.22;;;4.80;100.00
37238;BME280;23129;49.662;8.448;2023-12-28T00:08:31;100715.28;;;4.77;100.00
37238;BME280;23129;49.662;8.448;2023-12-28T00:11:00;100697.06;;;4.74;100.00
37238;BME280;23129;49.662;8.448;2023-12-28T00:13:30;100695.34;;;4.72;100.00
37238;BME280;23129;49.662;8.448;2023-12-28T00:15:59;100699.69;;;4.70;100.00
37238;BME280;23129;49.662;8.448;2023-12-28T00:18:28;100698.81;;;4.68;100.00
37238;BME280;23129;49.662;8.448;2023-12-28T00:20:57;100703.13;;;4.66;100.00
37238;BME280;23129;49.662;8.448;2023-12-28T00:23:28;100711.81;;;4.65;100.00
37238;BME280;23129;49.662;8.448;2023-12-28T00:25:57;100707.50;;;4.64;100.00
37238;BME280;23129;49.662;8.448;2023-12-28T00:28:25;100705.72;;;4.63;100.00
37238;BME280;23129;49.662;8.448;2023-12-28T00:30:54;100710.06;;;4.62;100.00
37238;BME280;23129;49.662;8.448;2023-12-28T00:33:23;100706.59;;;4.62;100.00
37238;BME280;23129;49.662;8.448;2023-12-28T00:35:52;100717.00;;;4.62;100.00
37238;BME280;23129;49.662;8.448;2023-12-28T00:38:21;100709.22;;;4.62;100.00
37238;BME280;23129;49.662;8.448;2023-12-28T00:40:52;100709.19;;;4.58;100.00
37238;BME280;23129;49.662;8.448;2023-12-28T00:43:22;100712.66;;;4.59;100.00
37238;BME280;23129;49.662;8.448;2023-12-28T00:45:50;100717.84;;;4.57;100.00
37238;BME280;23129;49.662;8.448;2023-12-28T00:48:19;100723.03;;;4.57;100.00
37238;BME280;23129;49.662;8.448;2023-12-28T00:50:48;100705.72;;;4.60;100.00
37238;BME280;23129;49.662;8.448;2023-12-28T00:53:17;100718.75;;;4.67;100.00
37238;BME280;23129;49.662;8.448;2023-12-28T00:55:47;100706.59;;;4.75;100.00
37238;BME280;23129;49.662;8.448;2023-12-28T00:58:17;100709.19;;;4.89;100.00
37238;BME280;23129;49.662;8.448;2023-12-28T01:00:46;100728.28;;;5.00;100.00
37238;BME280;23129;49.662;8.448;2023-12-28T01:03:15;100732.59;;;5.08;100.00
37238;BME280;23129;49.662;8.448;2023-12-28T01:05:44;100734.31;;;5.15;100.00
37238;BME280;23129;49.662;8.448;2023-12-28T01:08:14;100734.31;;;5.19;100.00
37238;BME280;23129;49.662;8.448;2023-12-28T01:10:43;100727.38;;;5.24;100.00
37238;BME280;23129;49.662;8.448;2023-12-28T01:13:12;100717.81;;;5.28;100.00
37238;BME280;23129;49.662;8.448;2023-12-28T01:15:42;100710.03;;;5.33;100.00
37238;BME280;23129;49.662;8.448;2023-12-28T01:18:11;100708.28;;;5.35;100.00
37238;BME280;23129;49.662;8.448;2023-12-28T01:20:40;100712.59;;;5.37;100.00
37238;BME280;23129;49.662;8.448;2023-12-28T01:23:09;100705.66;;;5.42;100.00
37238;BME280;23129;49.662;8.448;2023-12-28T01:25:38;100717.78;;;5.49;100.00
37238;BME280;23129;49.662;8.448;2023-12-28T01:28:07;100714.28;;;5.60;100.00
37238;BME280;23129;49.662;8.448;2023-12-28T01:30:36;100699.47;;;5.71;100.00
37238;BME280;23129;49.662;8.448;2023-12-28T01:33:06;100697.72;;;5.84;100.00
37238;BME280;23129;49.662;8.448;2023-12-28T01:35:36;100708.09;;;5.94;100.00
37238;BME280;23129;49.662;8.448;2023-12-28T01:38:05;100710.63;;;6.07;100.00
37238;BME280;23129;49.662;8.448;2023-12-28T01:40:34;100731.41;;;6.19;100.00
37238;BME280;23129;49.662;8.448;2023-12-28T01:43:03;100731.38;;;6.31;100.00
37238;BME280;23129;49.662;8.448;2023-12-28T01:45:32;100731.28;;;6.44;100.00
37238;BME280;23129;49.662;8.448;2023-12-28T01:48:01;100741.63;;;6.56;100.00
37238;BME280;23129;49.662;8.448;2023-12-28T01:50:32;100736.31;;;6.67;100.00
37238;BME280;23129;49.662;8.448;2023-12-28T01:53:02;100733.66;;;6.77;100.00
37238;BME280;23129;49.662;8.448;2023-12-28T01:55:32;100749.22;;;6.86;100.00
37238;BME280;23129;49.662;8.448;2023-12-28T01:58:02;100736.13;;;6.94;100.00
37238;BME280;23129;49.662;8.448;2023-12-28T02:00:32;100749.13;;;7.00;100.00
37238;BME280;23129;49.662;8.448;2023-12-28T02:03:05;100748.22;;;7.04;100.00
37238;BME280;23129;49.662;8.448;2023-12-28T02:05:36;100755.97;;;7.11;100.00
37238;BME280;23129;49.662;8.448;2023-12-28T02:08:06;100758.50;;;7.20;100.00
37238;BME280;23129;49.662;8.448;2023-12-28T02:10:35;100765.38;;;7.30;100.00
37238;BME280;23129;49.662;8.448;2023-12-28T02:13:04;100751.31;;;7.42;100.00
37238;BME280;23129;49.662;8.448;2023-12-28T02:15:32;100765.13;;;7.53;100.00
37238;BME280;23129;49.662;8.448;2023-12-28T02:18:05;100761.56;;;7.63;100.00
37238;BME280;23129;49.662;8.448;2023-12-28T02:20:40;100756.28;;;7.69;100.00
37238;BME280;23129;49.662;8.448;2023-12-28T02:23:10;100766.66;;;7.75;100.00
37238;BME280;23129;49.662;8.448;2023-12-28T02:25:40;100771.81;;;7.82;100.00
37238;BME280;23129;49.662;8.448;2023-12-28T02:28:09;100763.03;;;7.86;100.00
37238;BME280;23129;49.662;8.448;2023-12-28T02:30:38;100768.19;;;7.92;100.00
37238;BME280;23129;49.662;8.448;2023-12-28T02:33:11;100757.69;;;7.98;100.00
37238;BME280;23129;49.662;8.448;2023-12-28T02:35:44;100755.88;;;8.03;100.00
37238;BME280;23129;49.662;8.448;2023-12-28T02:38:15;100762.81;;;8.06;100.00
37238;BME280;23129;49.662;8.448;2023-12-28T02:40:46;100769.72;;;8.11;100.00
37238;BME280;23129;49.662;8.448;2023-12-28T02:43:16;100771.44;;;8.14;100.00
37238;BME280;23129;49.662;8.448;2023-12-28T02:45:45;100783.56;;;8.16;100.00
37238;BME280;23129;49.662;8.448;2023-12-28T02:48:14;100790.53;;;8.17;100.00
37238;BME280;23129;49.662;8.448;2023-12-28T02:50:43;100788.75;;;8.19;100.00
37238;BME280;23129;49.662;8.448;2023-12-28T02:53:12;100781.78;;;8.21;100.00
37238;BME280;23129;49.662;8.448;2023-12-28T02:55:41;100773.03;;;8.22;100.00
37238;BME280;23129;49.662;8.448;2023-12-28T02:58:11;100771.22;;;8.28;100.00
37238;BME280;23129;49.662;8.448;2023-12-28T03:00:40;100772.06;;;8.31;100.00
37238;BME280;23129;49.662;8.448;2023-12-28T03:03:09;100763.34;;;8.32;100.00
37238;BME280;23129;49.662;8.448;2023-12-28T03:05:38;100772.91;;;8.35;100.00
37238;BME280;23129;49.662;8.448;2023-12-28T03:08:07;100779.84;;;8.36;100.00
37238;BME280;23129;49.662;8.448;2023-12-28T03:10:35;100788.53;;;8.38;100.00
37238;BME280;23129;49.662;8.448;2023-12-28T03:13:04;100791.09;;;8.44;100.00
37238;BME280;23129;49.662;8.448;2023-12-28T03:15:35;100787.50;;;8.51;100.00
37238;BME280;23129;49.662;8.448;2023-12-28T03:18:04;100793.50;;;8.58;100.00
37238;BME280;23129;49.662;8.448;2023-12-28T03:20:33;100795.19;;;8.63;100.00
37238;BME280;23129;49.662;8.448;2023-12-28T03:23:02;100796.00;;;8.67;100.00
37238;BME280;23129;49.662;8.448;2023-12-28T03:25:32;100788.13;;;8.68;100.00
37238;BME280;23129;49.662;8.448;2023-12-28T03:28:00;100778.50;;;8.72;100.00
37238;BME280;23129;49.662;8.448;2023-12-28T03:30:30;100785.44;;;8.75;100.00
37238;BME280;23129;49.662;8.448;2023-12-28T03:33:01;100781.91;;;8.76;100.00
37238;BME280;23129;49.662;8.448;2023-12-28T03:35:30;100782.78;;;8.78;100.00
37238;BME280;23129;49.662;8.448;2023-12-28T03:37:58;100775.78;;;8.80;100.00
37238;BME280;23129;49.662;8.448;2023-12-28T03:40:28;100779.16;;;8.85;100.00
37238;BME280;23129;49.662;8.448;2023-12-28T03:42:57;100776.50;;;8.88;100.00
37238;BME280;23129;49.662;8.448;2023-12-28T03:45:27;100793.91;;;8.90;100.00
37238;BME280;23129;49.662;8.448;2023-12-28T03:47:56;100794.75;;;8.91;100.00
37238;BME280;23129;49.662;8.448;2023-12-28T03:50:27;100796.50;;;8.92;100.00
37238;BME280;23129;49.662;8.448;2023-12-28T03:52:56;100790.41;;;8.91;100.00
37238;BME280;23129;49.662;8.448;2023-12-28T03:55:26;100789.47;;;8.94;100.00
37238;BME280;23129;49.662;8.448;2023-12-28T03:57:55;100799.09;;;8.95;100.00
37238;BME280;23129;49.662;8.448;2023-12-28T04:00:24;100799.03;;;8.97;100.00
37238;BME280;23129;49.662;8.448;2023-12-28T04:02:54;100801.66;;;8.98;100.00
37238;BME280;23129;49.662;8.448;2023-12-28T04:05:27;100807.69;;;9.00;100.00
37238;BME280;23129;49.662;8.448;2023-12-28T04:07:57;100801.59;;;9.01;100.00
37238;BME280;23129;49.662;8.448;2023-12-28T04:10:31;100802.47;;;9.02;100.00
37238;BME280;23129;49.662;8.448;2023-12-28T04:13:01;100787.63;;;9.02;100.00
37238;BME280;23129;49.662;8.448;2023-12-28T04:15:30;100783.28;;;9.01;100.00
37238;BME280;23129;49.662;8.448;2023-12-28T04:17:59;100800.69;;;9.02;100.00
37238;BME280;23129;49.662;8.448;2023-12-28T04:20:30;100770.97;;;9.08;100.00
37238;BME280;23129;49.662;8.448;2023-12-28T04:22:59;100775.28;;;9.10;100.00
37238;BME280;23129;49.662;8.448;2023-12-28T04:25:28;100798.78;;;9.12;100.00
37238;BME280;23129;49.662;8.448;2023-12-28T04:27:57;100794.44;;;9.12;100.00
37238;BME280;23129;49.662;8.448;2023-12-28T04:30:27;100796.16;;;9.13;100.00
37238;BME280;23129;49.662;8.448;2023-12-28T04:32:56;100792.69;;;9.11;100.00
37238;BME280;23129;49.662;8.448;2023-12-28T04:35:25;100797.13;;;9.09;100.00
37238;BME280;23129;49.662;8.448;2023-12-28T04:37:55;100800.59;;;9.10;100.00
37238;BME280;23129;49.662;8.448;2023-12-28T04:40:24;100804.97;;;9.09;100.00
37238;BME280;23129;49.662;8.448;2023-12-28T04:42:53;100807.53;;;9.11;100.00
37238;BME280;23129;49.662;8.448;2023-12-28T04:45:22;100820.63;;;9.12;100.00
37238;BME280;23129;49.662;8.448;2023-12-28T04:47:51;100797.94;;;9.11;100.00
37238;BME280;23129;49.662;8.448;2023-12-28T04:50:20;100805.78;;;9.11;100.00
37238;BME280;23129;49.662;8.448;2023-12-28T04:52:49;100797.94;;;9.11;100.00
37238;BME280;23129;49.662;8.448;2023-12-28T04:55:20;100794.44;;;9.12;100.00
37238;BME280;23129;49.662;8.448;2023-12-28T04:57:49;100791.78;;;9.14;100.00
37238;BME280;23129;49.662;8.448;2023-12-28T05:00:18;100797.88;;;9.14;100.00
37238;BME280;23129;49.662;8.448;2023-12-28T05:03:04;100792.66;;;9.14;100.00
37238;BME280;23129;49.662;8.448;2023-12-28T05:05:37;100795.22;;;9.18;100.00
37238;BME280;23129;49.662;8.448;2023-12-28T05:08:15;100800.44;;;9.19;100.00
37238;BME280;23129;49.662;8.448;2023-12-28T05:11:00;100812.63;;;9.22;100.00
37238;BME280;23129;49.662;8.448;2023-12-28T05:13:29;100818.66;;;9.24;100.00
37238;BME280;23129;49.662;8.448;2023-12-28T05:15:58;100822.16;;;9.24;100.00
37238;BME280;23129;49.662;8.448;2023-12-28T05:18:27;100819.53;;;9.24;100.00
37238;BME280;23129;49.662;8.448;2023-12-28T05:20:56;100825.66;;;9.25;100.00
37238;BME280;23129;49.662;8.448;2023-12-28T05:23:25;100814.28;;;9.24;100.00
37238;BME280;23129;49.662;8.448;2023-12-28T05:25:54;100821.22;;;9.27;100.00
37238;BME280;23129;49.662;8.448;2023-12-28T05:28:24;100829.03;;;9.30;100.00
37238;BME280;23129;49.662;8.448;2023-12-28T05:30:52;100839.47;;;9.33;100.00
37238;BME280;23129;49.662;8.448;2023-12-28T05:33:21;100849.91;;;9.34;100.00
37238;BME280;23129;49.662;8.448;2023-12-28T05:35:50;100848.22;;;9.32;100.00
37238;BME280;23129;49.662;8.448;2023-12-28T05:38:19;100851.72;;;9.31;100.00
37238;BME280;23129;49.662;8.448;2023-12-28T05:40:48;100846.53;;;9.28;100.00
37238;BME280;23129;49.662;8.448;2023-12-28T05:43:16;100850.06;;;9.24;100.00
37238;BME280;23129;49.662;8.448;2023-12-28T05:45:47;100857.97;;;9.21;100.00
37238;BME280;23129;49.662;8.448;2023-12-28T05:48:15;100852.78;;;9.18;100.00
37238;BME280;23129;49.662;8.448;2023-12-28T05:50:44;100851.97;;;9.16;100.00
37238;BME280;23129;49.662;8.448;2023-12-28T05:53:13;100838.91;;;9.14;100.00
37238;BME280;23129;49.662;8.448;2023-12-28T05:55:42;100855.47;;;9.14;100.00
37238;BME280;23129;49.662;8.448;2023-12-28T05:58:11;100858.97;;;9.13;100.00
37238;BME280;23129;49.662;8.448;2023-12-28T06:00:40;100855.50;;;9.13;100.00
37238;BME280;23129;49.662;8.448;2023-12-28T06:03:10;100857.25;;;9.12;100.00
37238;BME280;23129;49.662;8.448;2023-12-28T06:05:39;100849.41;;;9.11;100.00
37238;BME280;23129;49.662;8.448;2023-12-28T06:08:08;100855.56;;;9.08;100.00
37238;BME280;23129;49.662;8.448;2023-12-28T06:10:38;100859.91;;;9.09;100.00
37238;BME280;23129;49.662;8.448;2023-12-28T06:13:07;100866.03;;;9.08;100.00
37238;BME280;23129;49.662;8.448;2023-12-28T06:15:36;100865.16;;;9.09;100.00
37238;BME280;23129;49.662;8.448;2023-12-28T06:18:05;100867.78;;;9.09;100.00
37238;BME280;23129;49.662;8.448;2023-12-28T06:20:35;100865.13;;;9.11;100.00
37238;BME280;23129;49.662;8.448;2023-12-28T06:23:06;100864.25;;;9.10;100.00
37238;BME280;23129;49.662;8.448;2023-12-28T06:25:35;100865.97;;;9.11;100.00
37238;BME280;23129;49.662;8.448;2023-12-28T06:28:04;100859.03;;;9.10;100.00
37238;BME280;23129;49.662;8.448;2023-12-28T06:30:33;100856.41;;;9.10;100.00
37238;BME280;23129;49.662;8.448;2023-12-28T06:33:02;100857.31;;;9.09;100.00
37238;BME280;23129;49.662;8.448;2023-12-28T06:35:31;100865.97;;;9.11;100.00
37238;BME280;23129;49.662;8.448;2023-12-28T06:38:01;100857.25;;;9.12;100.00
37238;BME280;23129;49.662;8.448;2023-12-28T06:40:30;100850.22;;;9.14;100.00
37238;BME280;23129;49.662;8.448;2023-12-28T06:42:59;100865.88;;;9.18;100.00
37238;BME280;23129;49.662;8.448;2023-12-28T06:45:28;100864.13;;;9.20;100.00
37238;BME280;23129;49.662;8.448;2023-12-28T06:47:57;100867.56;;;9.22;100.00
37238;BME280;23129;49.662;8.448;2023-12-28T06:50:27;100867.53;;;9.25;100.00
37238;BME280;23129;49.662;8.448;2023-12-28T06:52:56;100866.63;;;9.27;100.00
37238;BME280;23129;49.662;8.448;2023-12-28T06:55:26;100848.25;;;9.29;100.00
37238;BME280;23129;49.662;8.448;2023-12-28T06:57:55;100851.72;;;9.31;100.00
37238;BME280;23129;49.662;8.448;2023-12-28T07:00:24;100856.91;;;9.32;100.00
37238;BME280;23129;49.662;8.448;2023-12-28T07:02:53;100856.91;;;9.34;100.00
37238;BME280;23129;49.662;8.448;2023-12-28T07:05:22;100851.63;;;9.37;100.00
37238;BME280;23129;49.662;8.448;2023-12-28T07:07:51;100865.53;;;9.39;100.00
37238;BME280;23129;49.662;8.448;2023-12-28T07:10:19;100864.66;;;9.40;100.00
37238;BME280;23129;49.662;8.448;2023-12-28T07:12:49;100852.44;;;9.41;100.00
37238;BME280;23129;49.662;8.448;2023-12-28T07:15:18;100860.25;;;9.42;100.00
37238;BME280;23129;49.662;8.448;2023-12-28T07:17:47;100874.19;;;9.44;100.00
37238;BME280;23129;49.662;8.448;2023-12-28T07:20:16;100875.91;;;9.45;100.00
37238;BME280;23129;49.662;8.448;2023-12-28T07:22:45;100872.41;;;9.46;100.00
37238;BME280;23129;49.662;8.448;2023-12-28T07:25:15;100864.56;;;9.46;100.00
37238;BME280;23129;49.662;8.448;2023-12-28T07:27:44;100877.59;;;9.49;100.00
37238;BME280;23129;49.662;8.448;2023-12-28T07:30:14;100878.47;;;9.50;100.00
37238;BME280;23129;49.662;8.448;2023-12-28T07:32:44;100892.41;;;9.50;100.00
37238;BME280;23129;49.662;8.448;2023-12-28T07:35:13;100886.31;;;9.51;100.00
37238;BME280;23129;49.662;8.448;2023-12-28T07:37:42;100893.25;;;9.52;100.00
37238;BME280;23129;49.662;8.448;2023-12-28T07:40:12;100892.38;;;9.53;100.00
37238;BME280;23129;49.662;8.448;2023-12-28T07:42:41;100891.50;;;9.54;100.00
37238;BME280;23129;49.662;8.448;2023-12-28T07:45:10;100885.34;;;9.55;100.00
37238;BME280;23129;49.662;8.448;2023-12-28T07:47:40;100886.22;;;9.57;100.00
37238;BME280;23129;49.662;8.448;2023-12-28T07:50:09;100888.78;;;9.59;100.00
37238;BME280;23129;49.662;8.448;2023-12-28T07:52:39;100901.88;;;9.60;100.00
37238;BME280;23129;49.662;8.448;2023-12-28T07:55:08;100896.59;;;9.62;100.00
37238;BME280;23129;49.662;8.448;2023-12-28T07:57:37;100901.81;;;9.64;100.00
37238;BME280;23129;49.662;8.448;2023-12-28T08:00:07;100898.28;;;9.65;100.00
37238;BME280;23129;49.662;8.448;2023-12-28T08:02:36;100894.75;;;9.67;100.00
37238;BME280;23129;49.662;8.448;2023-12-28T08:05:07;100891.22;;;9.70;100.00
37238;BME280;23129;49.662;8.448;2023-12-28T08:07:36;100897.34;;;9.70;100.00
37238;BME280;23129;49.662;8.448;2023-12-28T08:10:06;100906.03;;;9.72;100.00
37238;BME280;23129;49.662;8.448;2023-12-28T08:12:35;100903.38;;;9.75;100.00
37238;BME280;23129;49.662;8.448;2023-12-28T08:15:05;100915.53;;;9.78;100.00
37238;BME280;23129;49.662;8.448;2023-12-28T08:17:33;100912.03;;;9.79;100.00
37238;BME280;23129;49.662;8.448;2023-12-28T08:20:03;100907.59;;;9.81;100.00
37238;BME280;23129;49.662;8.448;2023-12-28T08:22:33;100903.22;;;9.83;100.00
37238;BME280;23129;49.662;8.448;2023-12-28T08:25:02;100919.75;;;9.87;100.00
37238;BME280;23129;49.662;8.448;2023-12-28T08:27:31;100919.69;;;9.90;100.00
37238;BME280;23129;49.662;8.448;2023-12-28T08:30:00;100927.53;;;9.91;100.00
37238;BME280;23129;49.662;8.448;2023-12-28T08:32:29;100916.94;;;9.97;100.00
37238;BME280;23129;49.662;8.448;2023-12-28T08:34:58;100914.28;;;9.99;100.00
37238;BME280;23129;49.662;8.448;2023-12-28T08:37:27;100910.75;;;10.01;100.00
37238;BME280;23129;49.662;8.448;2023-12-28T08:39:57;100907.22;;;10.04;100.00
37238;BME280;23129;49.662;8.448;2023-12-28T08:42:27;100911.53;;;10.06;100.00
37238;BME280;23129;49.662;8.448;2023-12-28T08:44:56;100913.25;;;10.07;100.00
37238;BME280;23129;49.662;8.448;2023-12-28T08:47:25;100901.91;;;10.09;100.00
37238;BME280;23129;49.662;8.448;2023-12-28T08:49:53;100904.53;;;10.09;100.00
37238;BME280;23129;49.662;8.448;2023-12-28T08:52:23;100899.28;;;10.09;100.00
37238;BME280;23129;49.662;8.448;2023-12-28T08:54:52;100904.47;;;10.10;100.00
37238;BME280;23129;49.662;8.448;2023-12-28T08:57:24;100910.56;;;10.11;100.00
37238;BME280;23129;49.662;8.448;2023-12-28T09:00:09;100917.59;;;10.10;100.00
37238;BME280;23129;49.662;8.448;2023-12-28T09:02:38;100907.97;;;10.11;100.00
37238;BME280;23129;49.662;8.448;2023-12-28T09:05:08;100914.94;;;10.12;100.00
37238;BME280;23129;49.662;8.448;2023-12-28T09:07:37;100906.22;;;10.11;100.00
37238;BME280;23129;49.662;8.448;2023-12-28T09:10:11;100905.34;;;10.11;100.00
37238;BME280;23129;49.662;8.448;2023-12-28T09:12:42;100904.47;;;10.12;100.00
37238;BME280;23129;49.662;8.448;2023-12-28T09:15:11;100909.66;;;10.13;100.00
37238;BME280;23129;49.662;8.448;2023-12-28T09:17:40;100905.25;;;10.15;100.00
37238;BME280;23129;49.662;8.448;2023-12-28T09:20:09;100922.72;;;10.16;100.00
37238;BME280;23129;49.662;8.448;2023-12-28T09:22:39;100918.31;;;10.17;100.00
37238;BME280;23129;49.662;8.448;2023-12-28T09:25:08;100913.94;;;10.19;100.00
37238;BME280;23129;49.662;8.448;2023-12-28T09:27:37;100916.50;;;10.22;100.00
37238;BME280;23129;49.662;8.448;2023-12-28T09:30:08;100919.97;;;10.24;100.00
37238;BME280;23129;49.662;8.448;2023-12-28T09:32:37;100923.41;;;10.26;100.00
37238;BME280;23129;49.662;8.448;2023-12-28T09:35:07;100930.38;;;10.28;100.00
37238;BME280;23129;49.662;8.448;2023-12-28T09:37:35;100935.53;;;10.33;100.00
37238;BME280;23129;49.662;8.448;2023-12-28T09:40:05;100937.19;;;10.39;100.00
37238;BME280;23129;49.662;8.448;2023-12-28T09:42:43;100943.25;;;10.42;100.00
37238;BME280;23129;49.662;8.448;2023-12-28T09:45:18;100934.47;;;10.43;100.00
37238;BME280;23129;49.662;8.448;2023-12-28T09:47:48;100944.94;;;10.45;100.00
37238;BME280;23129;49.662;8.448;2023-12-28T09:50:19;100938.84;;;10.44;100.00
37238;BME280;23129;49.662;8.448;2023-12-28T09:52:48;100942.34;;;10.43;100.00
37238;BME280;23129;49.662;8.448;2023-12-28T09:55:16;100933.59;;;10.44;100.00
37238;BME280;23129;49.662;8.448;2023-12-28T09:57:46;100922.19;;;10.45;100.00
37238;BME280;23129;49.662;8.448;2023-12-28T10:00:15;100920.41;;;10.47;100.00
37238;BME280;23129;49.662;8.448;2023-12-28T10:02:46;100929.09;;;10.51;100.00
37238;BME280;23129;49.662;8.448;2023-12-28T10:05:15;100917.66;;;10.54;100.00
37238;BME280;23129;49.662;8.448;2023-12-28T10:07:45;100912.31;;;10.58;100.00
37238;BME280;23129;49.662;8.448;2023-12-28T10:10:18;100918.34;;;10.63;100.00
37238;BME280;23129;49.662;8.448;2023-12-28T10:12:47;100924.31;;;10.70;100.00
37238;BME280;23129;49.662;8.448;2023-12-28T10:15:16;100915.44;;;10.77;100.00
37238;BME280;23129;49.662;8.448;2023-12-28T10:17:47;100912.69;;;10.83;100.00
37238;BME280;23129;49.662;8.448;2023-12-28T10:20:16;100920.44;;;10.89;100.00
37238;BME280;23129;49.662;8.448;2023-12-28T10:22:45;100927.31;;;10.93;100.00
37238;BME280;23129;49.662;8.448;2023-12-28T10:25:14;100915.03;;;10.95;100.00
37238;BME280;23129;49.662;8.448;2023-12-28T10:27:43;100920.19;;;11.00;100.00
37238;BME280;23129;49.662;8.448;2023-12-28T10:30:13;100914.84;;;11.05;100.00
37238;BME280;23129;49.662;8.448;2023-12-28T10:32:42;100917.31;;;11.11;100.00
37238;BME280;23129;49.662;8.448;2023-12-28T10:35:13;100911.97;;;11.15;100.00
37238;BME280;23129;49.662;8.448;2023-12-28T10:37:43;100909.31;;;11.17;100.00
37238;BME280;23129;49.662;8.448;2023-12-28T10:40:13;100916.28;;;11.18;100.00
37238;BME280;23129;49.662;8.448;2023-12-28T10:42:51;100908.38;;;11.19;100.00
37238;BME280;23129;49.662;8.448;2023-12-28T10:45:23;100917.03;;;11.23;100.00
37238;BME280;23129;49.662;8.448;2023-12-28T10:47:58;100910.06;;;11.22;100.00
37238;BME280;23129;49.662;8.448;2023-12-28T10:50:37;100918.84;;;11.21;100.00
37238;BME280;23129;49.662;8.448;2023-12-28T10:53:26;100922.44;;;11.17;100.00
37238;BME280;23129;49.662;8.448;2023-12-28T10:56:10;100920.75;;;11.14;100.00
37238;BME280;23129;49.662;8.448;2023-12-28T10:58:46;100909.59;;;11.05;100.00
37238;BME280;23129;49.662;8.448;2023-12-28T11:01:21;100916.63;;;11.03;100.00
37238;BME280;23129;49.662;8.448;2023-12-28T11:03:58;100910.50;;;11.02;100.00
37238;BME280;23129;49.662;8.448;2023-12-28T11:06:33;100922.81;;;11.00;100.00
37238;BME280;23129;49.662;8.448;2023-12-28T11:09:04;100908.88;;;10.98;100.00
37238;BME280;23129;49.662;8.448;2023-12-28T11:11:37;100897.53;;;10.96;100.00
37238;BME280;23129;49.662;8.448;2023-12-28T11:14:06;100899.22;;;10.99;100.00
37238;BME280;23129;49.662;8.448;2023-12-28T11:16:36;100902.66;;;11.01;100.00
37238;BME280;23129;49.662;8.448;2023-12-28T11:19:05;100899.16;;;11.02;100.00
37238;BME280;23129;49.662;8.448;2023-12-28T11:21:36;100892.06;;;11.05;100.00
37238;BME280;23129;49.662;8.448;2023-12-28T11:24:06;100893.78;;;11.08;100.00
37238;BME280;23129;49.662;8.448;2023-12-28T11:26:35;100885.00;;;11.09;100.00
37238;BME280;23129;49.662;8.448;2023-12-28T11:29:04;100881.47;;;11.10;100.00
37238;BME280;23129;49.662;8.448;2023-12-28T11:31:33;100883.28;;;11.08;100.00
37238;BME280;23129;49.662;8.448;2023-12-28T11:34:05;100892.94;;;11.06;100.00
37238;BME280;23129;49.662;8.448;2023-12-28T11:36:51;100886.91;;;11.01;100.00
37238;BME280;23129;49.662;8.448;2023-12-28T11:39:30;100899.31;;;10.94;100.00
37238;BME280;23129;49.662;8.448;2023-12-28T11:42:03;100899.38;;;10.92;100.00
37238;BME280;23129;49.662;8.448;2023-12-28T11:44:37;100898.56;;;10.89;100.00
37238;BME280;23129;49.662;8.448;2023-12-28T11:47:14;100896.03;;;10.84;100.00
37238;BME280;23129;49.662;8.448;2023-12-28T11:49:44;100890.84;;;10.81;100.00
37238;BME280;23129;49.662;8.448;2023-12-28T11:52:25;100885.59;;;10.81;100.00
37238;BME280;23129;49.662;8.448;2023-12-28T11:54:54;100881.16;;;10.85;100.00
37238;BME280;23129;49.662;8.448;2023-12-28T11:57:23;100869.75;;;10.86;100.00
37238;BME280;23129;49.662;8.448;2023-12-28T12:02:23;100864.47;;;10.87;100.00
37238;BME280;23129;49.662;8.448;2023-12-28T12:04:53;100860.94;;;10.90;100.00
37238;BME280;23129;49.662;8.448;2023-12-28T12:07:24;100866.19;;;10.88;100.00
37238;BME280;23129;49.662;8.448;2023-12-28T12:09:56;100862.75;;;10.86;100.00
37238;BME280;23129;49.662;8.448;2023-12-28T12:12:25;100861.00;;;10.85;100.00
37238;BME280;23129;49.662;8.448;2023-12-28T12:14:55;100857.59;;;10.83;100.00
37238;BME280;23129;49.662;8.448;2023-12-28T12:17:25;100857.66;;;10.80;100.00
37238;BME280;23129;49.662;8.448;2023-12-28T12:19:54;100847.22;;;10.77;100.00
37238;BME280;23129;49.662;8.448;2023-12-28T12:22:27;100857.78;;;10.74;100.00
37238;BME280;23129;49.662;8.448;2023-12-28T12:24:57;100861.34;;;10.70;100.00
37238;BME280;23129;49.662;8.448;2023-12-28T12:27:29;100861.41;;;10.67;100.00
37238;BME280;23129;49.662;8.448;2023-12-28T12:29:58;100857.16;;;10.63;100.00
37238;BME280;23129;49.662;8.448;2023-12-28T12:32:27;100858.09;;;10.59;100.00
37238;BME280;23129;49.662;8.448;2023-12-28T12:34:57;100852.91;;;10.56;100.00
37238;BME280;23129;49.662;8.448;2023-12-28T12:37:28;100845.09;;;10.52;100.00
37238;BME280;23129;49.662;8.448;2023-12-28T12:39:57;100847.84;;;10.46;100.00
37238;BME280;23129;49.662;8.448;2023-12-28T12:42:26;100832.25;;;10.40;100.00
37238;BME280;23129;49.662;8.448;2023-12-28T12:44:55;100825.38;;;10.36;100.00
37238;BME280;23129;49.662;8.448;2023-12-28T12:47:23;100823.66;;;10.35;100.00
37238;BME280;23129;49.662;8.448;2023-12-28T12:49:55;100831.53;;;10.34;100.00
37238;BME280;23129;49.662;8.448;2023-12-28T12:52:24;100820.25;;;10.30;100.00
37238;BME280;23129;49.662;8.448;2023-12-28T12:54:56;100836.88;;;10.29;100.00
37238;BME280;23129;49.662;8.448;2023-12-28T12:57:26;100835.19;;;10.26;100.00
37238;BME280;23129;49.662;8.448;2023-12-28T12:59:55;100830.81;;;10.24;100.00
37238;BME280;23129;49.662;8.448;2023-12-28T13:02:24;100829.97;;;10.23;100.00
37238;BME280;23129;49.662;8.448;2023-12-28T13:04:55;100829.97;;;10.22;100.00